createdAt,value
2022-11-29T00:01:43.044Z,75.60
2022-11-29T00:04:13.874Z,45.20
2022-11-29T00:06:44.732Z,44.40
2022-11-29T00:09:15.330Z,46.90
2022-11-29T00:12:04.291Z,44.50
2022-11-29T00:14:35.194Z,43.50
2022-11-29T00:17:06.378Z,43.90
2022-11-29T00:19:37.933Z,47.50
2022-11-29T00:22:08.901Z,48.30
2022-11-29T00:24:39.902Z,54.10
2022-11-29T00:27:10.634Z,52.30
2022-11-29T00:29:41.645Z,50.30
2022-11-29T00:32:12.516Z,48.40
2022-11-29T00:34:43.449Z,52.50
2022-11-29T00:37:14.598Z,46.10
2022-11-29T00:39:45.223Z,53.90
2022-11-29T00:42:17.288Z,53.50
2022-11-29T00:44:48.105Z,59.80
2022-11-29T00:47:19.066Z,53.10
2022-11-29T00:49:49.893Z,56.00
2022-11-29T00:52:21.005Z,47.80
2022-11-29T00:54:51.878Z,50.30
2022-11-29T00:57:22.823Z,54.70
2022-11-29T00:59:53.655Z,52.00
2022-11-29T01:02:24.567Z,54.00
2022-11-29T01:04:55.433Z,50.80
2022-11-29T01:07:26.391Z,55.50
2022-11-29T01:09:57.604Z,52.50
2022-11-29T01:12:28.440Z,49.60
2022-11-29T01:15:00.715Z,48.70
2022-11-29T01:17:31.543Z,57.10
2022-11-29T01:20:02.280Z,58.20
2022-11-29T01:22:36.146Z,55.10
2022-11-29T01:25:08.180Z,60.60
2022-11-29T01:27:41.550Z,58.80
2022-11-29T01:30:12.852Z,56.00
2022-11-29T01:32:43.580Z,54.30
2022-11-29T01:35:14.362Z,63.40
2022-11-29T01:37:45.510Z,54.70
2022-11-29T01:40:17.866Z,52.00
2022-11-29T01:42:48.576Z,53.40
2022-11-29T01:45:24.835Z,53.40
2022-11-29T01:47:58.481Z,59.10
2022-11-29T01:50:29.620Z,63.20
2022-11-29T01:53:00.934Z,61.00
2022-11-29T01:58:38.575Z,57.40
2022-11-29T02:01:10.094Z,52.80
2022-11-29T02:03:41.690Z,57.90
2022-11-29T02:06:12.617Z,59.30
2022-11-29T02:08:44.084Z,57.30
2022-11-29T02:11:30.670Z,55.10
2022-11-29T02:14:08.938Z,52.40
2022-11-29T02:16:45.355Z,53.00
2022-11-29T02:19:22.188Z,51.30
2022-11-29T02:21:53.672Z,49.70
2022-11-29T02:24:47.703Z,55.30
2022-11-29T02:27:45.893Z,59.00
2022-11-29T02:30:20.104Z,64.90
2022-11-29T02:33:07.064Z,61.90
2022-11-29T02:35:55.410Z,59.90
2022-11-29T02:38:36.378Z,60.10
2022-11-29T02:41:19.604Z,64.70
2022-11-29T02:44:08.049Z,63.50
2022-11-29T02:46:50.887Z,62.60
2022-11-29T02:49:26.006Z,76.70
2022-11-29T02:51:59.564Z,73.80
2022-11-29T02:54:36.009Z,68.40
2022-11-29T02:57:16.021Z,67.20
2022-11-29T02:59:50.907Z,64.60
2022-11-29T03:02:27.009Z,69.60
2022-11-29T03:05:02.989Z,62.50
2022-11-29T03:07:39.331Z,69.20
2022-11-29T03:10:16.317Z,64.50
2022-11-29T03:12:49.197Z,65.70
2022-11-29T03:15:26.147Z,62.60
2022-11-29T03:18:03.339Z,71.00
2022-11-29T03:20:39.993Z,65.80
2022-11-29T03:23:20.128Z,67.10
2022-11-29T03:25:53.594Z,63.70
2022-11-29T03:28:26.465Z,71.30
2022-11-29T03:31:00.581Z,68.40
2022-11-29T03:33:33.666Z,67.00
2022-11-29T03:36:08.082Z,70.00
2022-11-29T03:38:41.242Z,62.50
2022-11-29T03:41:18.906Z,60.20
2022-11-29T03:43:53.176Z,59.20
2022-11-29T03:46:27.007Z,58.90
2022-11-29T03:49:00.821Z,46.20
2022-11-29T03:51:39.104Z,52.70
2022-11-29T03:54:11.644Z,53.30
2022-11-29T03:56:42.808Z,55.70
2022-11-29T03:59:19.188Z,56.30
2022-11-29T04:02:04.055Z,59.90
2022-11-29T04:04:50.307Z,55.70
2022-11-29T04:07:32.395Z,59.70
2022-11-29T04:10:15.228Z,58.60
2022-11-29T04:12:59.010Z,57.00
2022-11-29T04:18:23.340Z,57.60
2022-11-29T04:21:08.071Z,55.10
2022-11-29T04:23:56.210Z,57.70
2022-11-29T04:26:52.347Z,59.50
2022-11-29T04:29:36.494Z,55.00
2022-11-29T04:32:19.678Z,56.50
2022-11-29T04:34:58.739Z,59.20
2022-11-29T04:37:57.019Z,63.60
2022-11-29T04:40:37.747Z,56.00
2022-11-29T04:43:19.175Z,48.10
2022-11-29T04:45:55.181Z,52.10
2022-11-29T04:48:35.016Z,48.00
2022-11-29T04:51:11.954Z,52.50
2022-11-29T04:53:49.094Z,49.50
2022-11-29T04:56:24.688Z,53.60
2022-11-29T04:58:59.411Z,52.80
2022-11-29T05:01:33.559Z,51.20
2022-11-29T05:04:08.150Z,54.30
2022-11-29T05:06:44.023Z,53.30
2022-11-29T05:09:20.677Z,50.20
2022-11-29T05:11:57.445Z,52.00
2022-11-29T05:14:36.061Z,48.10
2022-11-29T05:17:26.584Z,45.00
2022-11-29T05:20:05.024Z,55.40
2022-11-29T05:22:40.483Z,53.70
2022-11-29T05:25:21.593Z,52.50
2022-11-29T05:27:53.862Z,53.50
2022-11-29T05:30:25.942Z,50.00
2022-11-29T05:33:01.577Z,59.00
2022-11-29T05:35:51.765Z,49.60
2022-11-29T05:38:54.761Z,52.30
2022-11-29T05:41:38.286Z,55.00
2022-11-29T05:46:44.299Z,47.70
2022-11-29T05:49:20.106Z,47.70
2022-11-29T05:51:54.409Z,42.80
2022-11-29T05:54:28.681Z,45.90
2022-11-29T05:57:08.163Z,48.20
2022-11-29T05:59:40.143Z,44.10
2022-11-29T06:02:16.670Z,45.90
2022-11-29T06:04:52.719Z,44.00
2022-11-29T06:07:26.121Z,49.50
2022-11-29T06:10:01.608Z,44.30
2022-11-29T06:12:36.241Z,43.30
2022-11-29T06:15:13.852Z,45.50
2022-11-29T06:17:55.587Z,45.30
2022-11-29T06:20:32.356Z,51.00
2022-11-29T06:23:10.814Z,44.10
2022-11-29T06:25:48.647Z,46.30
2022-11-29T06:28:27.931Z,43.70
2022-11-29T06:31:02.270Z,39.00
2022-11-29T06:33:37.631Z,47.20
2022-11-29T06:36:14.567Z,45.10
2022-11-29T06:38:46.088Z,51.80
2022-11-29T06:41:19.114Z,48.80
2022-11-29T06:43:50.292Z,44.50
2022-11-29T06:46:26.010Z,41.80
2022-11-29T06:49:02.348Z,42.40
2022-11-29T06:51:36.760Z,45.70
2022-11-29T06:54:16.149Z,45.30
2022-11-29T06:56:50.731Z,46.60
2022-11-29T06:59:28.794Z,48.10
2022-11-29T07:02:02.477Z,43.50
2022-11-29T07:04:45.700Z,44.00
2022-11-29T07:07:20.168Z,46.50
2022-11-29T07:09:52.968Z,36.80
2022-11-29T07:12:24.619Z,41.20
2022-11-29T07:14:56.314Z,38.90
2022-11-29T07:17:30.636Z,48.90
2022-11-29T07:20:04.317Z,44.50
2022-11-29T07:22:41.167Z,45.50
2022-11-29T07:25:17.182Z,43.40
2022-11-29T07:27:52.803Z,45.90
2022-11-29T07:30:28.813Z,48.60
2022-11-29T07:33:07.042Z,44.90
2022-11-29T07:35:40.386Z,40.00
2022-11-29T07:40:46.339Z,53.80
2022-11-29T07:43:25.120Z,41.40
2022-11-29T07:45:56.818Z,40.50
2022-11-29T07:48:28.183Z,42.30
2022-11-29T07:50:59.894Z,45.70
2022-11-29T07:53:30.690Z,46.40
2022-11-29T08:05:33.396Z,40.80
2022-11-29T08:08:04.540Z,43.60
2022-11-29T08:10:35.992Z,50.00
2022-11-29T08:13:06.942Z,47.10
2022-11-29T08:15:37.875Z,51.20
2022-11-29T08:18:08.493Z,55.20
2022-11-29T08:20:41.470Z,48.90
2022-11-29T08:23:12.863Z,50.00
2022-11-29T08:25:43.777Z,54.20
2022-11-29T08:28:14.244Z,40.20
2022-11-29T08:30:46.512Z,48.40
2022-11-29T08:33:17.345Z,47.10
2022-11-29T08:35:49.979Z,44.90
2022-11-29T08:38:21.126Z,47.90
2022-11-29T08:40:51.956Z,53.10
2022-11-29T08:43:22.684Z,45.60
2022-11-29T08:45:54.339Z,48.70
2022-11-29T08:48:25.380Z,50.90
2022-11-29T08:50:56.948Z,47.60
2022-11-29T08:53:43.138Z,44.80
2022-11-29T08:56:59.612Z,47.00
2022-11-29T08:59:05.076Z,55.00
2022-11-29T09:01:36.068Z,55.00
2022-11-29T09:04:10.640Z,52.40
2022-11-29T09:06:43.283Z,56.90
2022-11-29T09:09:13.944Z,51.00
2022-11-29T09:11:49.250Z,51.50
2022-11-29T09:14:22.584Z,50.90
2022-11-29T09:16:54.795Z,56.40
2022-11-29T09:19:25.531Z,45.60
2022-11-29T09:21:56.733Z,49.60
2022-11-29T09:24:27.462Z,43.30
2022-11-29T09:26:58.259Z,54.30
2022-11-29T09:29:29.025Z,56.30
2022-11-29T09:31:59.882Z,62.00
2022-11-29T09:34:30.628Z,56.40
2022-11-29T09:37:01.749Z,54.90
2022-11-29T09:39:32.576Z,53.10
2022-11-29T09:42:22.255Z,52.70
2022-11-29T09:44:55.753Z,51.10
2022-11-29T09:47:33.180Z,53.60
2022-11-29T09:50:12.999Z,50.50
2022-11-29T09:52:48.932Z,54.50
2022-11-29T09:55:29.376Z,56.30
2022-11-29T09:58:01.778Z,48.30
2022-11-29T10:00:46.829Z,51.10
2022-11-29T10:03:19.891Z,51.70
2022-11-29T10:05:52.872Z,48.20
2022-11-29T10:08:27.029Z,45.70
2022-11-29T10:11:08.099Z,55.70
2022-11-29T10:13:40.703Z,53.40
2022-11-29T10:16:14.399Z,53.20
2022-11-29T10:21:17.457Z,50.60
2022-11-29T10:23:49.553Z,61.40
2022-11-29T10:26:21.103Z,59.00
2022-11-29T10:28:52.055Z,56.30
2022-11-29T10:31:25.445Z,51.90
2022-11-29T10:33:56.832Z,56.70
2022-11-29T10:36:37.050Z,59.30
2022-11-29T10:39:14.650Z,66.00
2022-11-29T10:41:46.478Z,59.20
2022-11-29T10:44:16.932Z,60.00
2022-11-29T10:46:48.050Z,55.20
2022-11-29T10:49:19.934Z,58.20
2022-11-29T10:51:51.087Z,59.90
2022-11-29T10:54:29.028Z,56.70
2022-11-29T10:57:00.803Z,53.40
2022-11-29T10:59:33.374Z,55.60
2022-11-29T11:02:04.763Z,60.60
2022-11-29T11:04:36.820Z,50.40
2022-11-29T11:07:08.787Z,54.90
2022-11-29T11:09:41.789Z,57.10
2022-11-29T11:12:19.866Z,58.60
2022-11-29T11:14:51.618Z,57.50
2022-11-29T11:17:26.550Z,54.30
2022-11-29T11:19:58.736Z,48.70
2022-11-29T11:22:32.789Z,47.20
2022-11-29T11:25:05.626Z,55.80
2022-11-29T11:27:37.780Z,57.10
2022-11-29T11:30:19.786Z,60.60
2022-11-29T11:33:03.829Z,59.00
2022-11-29T11:35:34.776Z,59.00
2022-11-29T11:38:05.813Z,57.60
2022-11-29T11:40:36.376Z,61.60
2022-11-29T11:43:16.803Z,59.10
2022-11-29T11:45:52.098Z,50.40
2022-11-29T11:48:23.279Z,58.00
2022-11-29T11:50:55.143Z,58.20
2022-11-29T11:53:27.999Z,60.00
2022-11-29T11:56:01.106Z,67.90
2022-11-29T11:58:32.653Z,51.80
2022-11-29T12:01:15.682Z,54.20
2022-11-29T12:03:50.030Z,53.80
2022-11-29T12:06:29.147Z,53.90
2022-11-29T12:09:03.861Z,52.50
2022-11-29T12:11:39.176Z,48.20
2022-11-29T12:14:13.060Z,46.70
2022-11-29T12:16:44.460Z,47.60
2022-11-29T12:19:18.226Z,47.00
2022-11-29T12:21:52.687Z,49.90
2022-11-29T12:24:27.702Z,46.70
2022-11-29T12:27:02.212Z,46.70
2022-11-29T12:29:34.287Z,49.00
2022-11-29T12:32:13.146Z,55.20
2022-11-29T12:34:49.546Z,46.50
2022-11-29T12:37:22.727Z,53.90
2022-11-29T12:42:27.934Z,52.20
2022-11-29T12:45:04.771Z,42.20
2022-11-29T12:47:45.215Z,42.60
2022-11-29T12:50:32.555Z,48.70
2022-11-29T12:53:09.714Z,50.20
2022-11-29T12:55:49.245Z,48.90
2022-11-29T12:58:25.289Z,48.90
2022-11-29T13:01:02.035Z,41.70
2022-11-29T13:03:35.519Z,43.60
2022-11-29T13:06:14.986Z,42.20
2022-11-29T13:08:53.662Z,48.40
2022-11-29T13:11:26.792Z,48.10
2022-11-29T13:14:13.821Z,45.30
2022-11-29T13:16:56.484Z,45.60
2022-11-29T13:19:31.736Z,43.00
2022-11-29T13:22:05.344Z,46.10
2022-11-29T13:24:42.762Z,41.30
2022-11-29T13:27:17.596Z,41.00
2022-11-29T13:29:49.376Z,43.20
2022-11-29T13:32:29.231Z,47.50
2022-11-29T13:35:02.676Z,44.10
2022-11-29T13:37:37.830Z,46.80
2022-11-29T13:40:19.201Z,39.30
2022-11-29T13:42:54.626Z,49.90
2022-11-29T13:45:27.599Z,45.80
2022-11-29T13:48:02.156Z,49.30
2022-11-29T13:50:40.557Z,47.80
2022-11-29T13:53:15.856Z,44.20
2022-11-29T13:55:47.723Z,53.40
2022-11-29T13:58:36.665Z,47.40
2022-11-29T14:01:11.389Z,49.50
2022-11-29T14:03:43.157Z,43.90
2022-11-29T14:06:21.362Z,51.20
2022-11-29T14:09:24.983Z,48.20
2022-11-29T14:12:00.328Z,49.90
2022-11-29T14:14:34.180Z,50.00
2022-11-29T14:17:06.444Z,47.00
2022-11-29T14:19:37.891Z,51.50
2022-11-29T14:22:25.167Z,47.50
2022-11-29T14:25:49.797Z,45.60
2022-11-29T14:28:33.550Z,53.20
2022-11-29T14:31:04.986Z,53.30
2022-11-29T14:33:44.433Z,61.50
2022-11-29T14:36:29.194Z,61.50
2022-11-29T14:39:06.380Z,60.60
2022-11-29T14:41:54.623Z,63.60
2022-11-29T14:44:28.484Z,71.30
2022-11-29T14:47:03.799Z,67.50
2022-11-29T14:49:40.952Z,67.10
2022-11-29T14:52:21.648Z,59.50
2022-11-29T14:55:00.061Z,60.20
2022-11-29T14:57:48.500Z,63.10
2022-11-29T15:00:20.535Z,67.80
2022-11-29T15:02:52.166Z,62.60
2022-11-29T15:05:24.757Z,64.40
2022-11-29T15:08:01.715Z,62.60
2022-11-29T15:10:34.829Z,69.50
2022-11-29T15:13:05.753Z,65.20
2022-11-29T15:15:40.221Z,66.50
2022-11-29T15:18:18.220Z,62.30
2022-11-29T15:20:58.975Z,62.50
2022-11-29T15:23:29.922Z,61.30
2022-11-29T15:26:02.796Z,66.50
2022-11-29T15:28:33.523Z,59.20
2022-11-29T15:31:05.400Z,68.30
2022-11-29T15:33:38.947Z,70.50
2022-11-29T15:36:19.246Z,75.30
2022-11-29T15:38:51.564Z,71.70
2022-11-29T15:41:23.595Z,70.80
2022-11-29T15:43:55.236Z,75.40
2022-11-29T15:46:27.926Z,67.70
2022-11-29T15:49:16.066Z,73.90
2022-11-29T15:51:47.926Z,72.40
2022-11-29T15:54:20.698Z,73.80
2022-11-29T15:56:53.114Z,72.90
2022-11-29T15:59:31.292Z,70.40
2022-11-29T16:02:04.225Z,74.10
2022-11-29T16:04:43.555Z,71.70
2022-11-29T16:07:17.504Z,73.40
2022-11-29T16:09:49.972Z,71.30
2022-11-29T16:12:21.111Z,74.20
2022-11-29T16:14:52.779Z,73.40
2022-11-29T16:17:26.183Z,87.40
2022-11-29T16:20:07.368Z,77.20
2022-11-29T16:22:38.298Z,69.30
2022-11-29T16:25:16.705Z,75.30
2022-11-29T16:27:47.741Z,65.40
2022-11-29T16:30:23.516Z,65.90
2022-11-29T16:32:55.235Z,69.20
2022-11-29T16:35:27.302Z,65.10
2022-11-29T16:37:57.983Z,64.70
2022-11-29T16:40:29.136Z,64.10
2022-11-29T16:43:19.803Z,66.40
2022-11-29T16:45:50.828Z,59.00
2022-11-29T16:48:32.039Z,60.60
2022-11-29T16:51:18.416Z,61.10
2022-11-29T16:53:50.567Z,68.30
2022-11-29T16:56:22.842Z,63.30
2022-11-29T16:59:20.956Z,58.30
2022-11-29T17:04:23.722Z,58.90
2022-11-29T17:06:56.035Z,61.10
2022-11-29T17:09:27.952Z,62.40
2022-11-29T17:12:00.033Z,66.30
2022-11-29T17:14:32.065Z,64.20
2022-11-29T17:17:03.212Z,61.90
2022-11-29T17:19:34.463Z,64.80
2022-11-29T17:22:05.083Z,67.10
2022-11-29T17:24:35.716Z,66.70
2022-11-29T17:27:06.550Z,63.60
2022-11-29T17:29:39.333Z,59.00
2022-11-29T17:32:10.105Z,58.70
2022-11-29T17:34:42.195Z,59.10
2022-11-29T17:37:12.969Z,59.90
2022-11-29T17:39:47.425Z,65.10
2022-11-29T17:42:18.087Z,60.30
2022-11-29T17:44:48.683Z,56.40
2022-11-29T17:47:19.497Z,53.50
2022-11-29T17:49:50.271Z,63.90
2022-11-29T17:52:21.161Z,61.00
2022-11-29T17:54:52.108Z,62.50
2022-11-29T17:57:22.612Z,63.50
2022-11-29T17:59:53.272Z,58.40
2022-11-29T18:02:24.010Z,60.80
2022-11-29T18:04:55.031Z,70.50
2022-11-29T18:07:26.007Z,59.70
2022-11-29T18:09:57.074Z,58.90
2022-11-29T18:12:28.043Z,63.40
2022-11-29T18:14:59.188Z,65.10
2022-11-29T18:17:30.236Z,61.00
2022-11-29T18:20:01.322Z,58.10
2022-11-29T18:22:32.105Z,68.30
2022-11-29T18:25:30.542Z,62.30
2022-11-29T18:27:53.698Z,66.10
2022-11-29T18:30:24.576Z,58.90
2022-11-29T18:32:55.218Z,60.30
2022-11-29T18:35:28.249Z,60.80
2022-11-29T18:38:14.822Z,69.20
2022-11-29T18:40:46.952Z,65.30
2022-11-29T18:43:18.327Z,69.00
2022-11-29T18:45:49.211Z,69.00
2022-11-29T18:48:20.213Z,66.00
2022-11-29T18:50:51.466Z,66.90
2022-11-29T18:53:22.388Z,53.70
2022-11-29T18:56:01.794Z,63.80
2022-11-29T18:58:32.669Z,58.90
2022-11-29T19:01:08.138Z,68.20
2022-11-29T19:03:40.186Z,59.10
2022-11-29T19:06:11.803Z,65.30
2022-11-29T19:08:42.688Z,60.10
2022-11-29T19:11:14.684Z,71.20
2022-11-29T19:13:45.969Z,62.20
2022-11-29T19:16:17.906Z,57.70
2022-11-29T19:18:51.339Z,64.20
2022-11-29T19:21:23.674Z,57.40
2022-11-29T19:23:55.070Z,66.40
2022-11-29T19:26:26.999Z,61.00
2022-11-29T19:28:57.868Z,60.50
2022-11-29T19:31:29.009Z,69.40
2022-11-29T19:33:59.701Z,67.40
2022-11-29T19:36:31.229Z,64.70
2022-11-29T19:39:02.799Z,64.50
2022-11-29T19:41:34.198Z,56.50
2022-11-29T19:44:05.811Z,56.80
2022-11-29T19:46:38.026Z,58.50
2022-11-29T19:49:09.328Z,60.10
2022-11-29T19:51:40.265Z,63.60
2022-11-29T19:54:12.218Z,59.50
2022-11-29T19:56:43.202Z,68.50
2022-11-29T19:59:13.874Z,65.50
2022-11-29T20:01:44.717Z,62.00
2022-11-29T20:04:17.024Z,63.70
2022-11-29T20:06:49.392Z,61.20
2022-11-29T20:09:20.104Z,66.40
2022-11-29T20:11:51.529Z,59.70
2022-11-29T20:14:26.904Z,59.40
2022-11-29T20:16:59.478Z,60.90
2022-11-29T20:19:30.216Z,58.00
2022-11-29T20:22:02.116Z,60.40
2022-11-29T20:24:39.078Z,62.00
2022-11-29T20:27:12.197Z,65.30
2022-11-29T20:29:42.763Z,60.70
2022-11-29T20:32:13.721Z,69.40
2022-11-29T20:34:45.683Z,57.30
2022-11-29T20:37:27.308Z,57.40
2022-11-29T20:40:01.176Z,56.60
2022-11-29T20:42:37.954Z,60.30
2022-11-29T20:45:10.244Z,63.50
2022-11-29T20:47:46.356Z,62.60
2022-11-29T20:50:21.790Z,60.20
2022-11-29T20:53:07.588Z,68.00
2022-11-29T20:55:47.487Z,64.60
2022-11-29T20:58:19.824Z,65.50
2022-11-29T21:00:50.726Z,59.90
2022-11-29T21:03:21.963Z,70.00
2022-11-29T21:05:53.038Z,61.90
2022-11-29T21:08:24.548Z,61.80
2022-11-29T21:10:55.628Z,59.90
2022-11-29T21:13:27.189Z,60.20
2022-11-29T21:15:58.903Z,65.60
2022-11-29T21:18:31.584Z,68.00
2022-11-29T21:21:05.274Z,64.20
2022-11-29T21:26:08.642Z,69.60
2022-11-29T21:28:41.790Z,65.40
2022-11-29T21:31:13.718Z,61.20
2022-11-29T21:33:44.835Z,63.30
2022-11-29T21:36:15.930Z,73.30
2022-11-29T21:38:50.885Z,62.00
2022-11-29T21:41:24.943Z,69.70
2022-11-29T21:44:06.634Z,67.40
2022-11-29T21:46:39.112Z,66.40
2022-11-29T21:49:10.107Z,70.50
2022-11-29T21:51:40.847Z,64.80
2022-11-29T21:54:11.776Z,66.30
2022-11-29T21:56:42.627Z,74.90
2022-11-29T21:59:13.455Z,75.60
2022-11-29T22:01:44.293Z,69.20
2022-11-29T22:04:15.272Z,72.80
2022-11-29T22:06:47.083Z,77.50
2022-11-29T22:09:17.966Z,68.30
2022-11-29T22:11:49.021Z,64.70
2022-11-29T22:14:20.307Z,62.20
2022-11-29T22:16:51.705Z,66.50
2022-11-29T22:19:23.602Z,66.30
2022-11-29T22:21:55.415Z,63.20
2022-11-29T22:24:27.092Z,70.10
2022-11-29T22:26:57.836Z,69.10
2022-11-29T22:29:28.522Z,72.60
2022-11-29T22:31:59.669Z,64.70
2022-11-29T22:34:30.458Z,58.70
2022-11-29T22:37:01.343Z,70.00
2022-11-29T22:39:32.046Z,65.20
2022-11-29T22:42:02.826Z,67.60
2022-11-29T22:44:33.510Z,60.90
2022-11-29T22:47:04.249Z,75.20
2022-11-29T22:49:35.052Z,76.40
2022-11-29T22:52:05.979Z,66.30
2022-11-29T22:54:36.614Z,68.10
2022-11-29T22:57:07.587Z,74.30
2022-11-29T22:59:38.669Z,80.30
2022-11-29T23:02:09.494Z,73.20
2022-11-29T23:04:40.389Z,77.40
2022-11-29T23:07:11.112Z,73.50
2022-11-29T23:09:42.110Z,64.80
2022-11-29T23:12:13.104Z,66.70
2022-11-29T23:14:44.042Z,66.50
2022-11-29T23:17:15.037Z,69.10
2022-11-29T23:19:45.621Z,69.60
2022-11-29T23:22:16.256Z,66.40
2022-11-29T23:24:47.638Z,70.50
2022-11-29T23:27:19.039Z,69.30
2022-11-29T23:29:50.046Z,70.30
2022-11-29T23:32:20.881Z,73.50
2022-11-29T23:34:51.736Z,73.90
2022-11-29T23:37:22.690Z,81.80
2022-11-29T23:39:53.632Z,70.50
2022-11-29T23:42:24.479Z,72.30
2022-11-29T23:45:08.284Z,78.50
2022-11-29T23:47:39.347Z,75.20
2022-11-29T23:50:10.857Z,75.40
2022-11-29T23:52:44.523Z,82.20
2022-11-29T23:55:16.778Z,80.50
2022-11-29T23:57:47.812Z,81.00
